Gulf — V2BB5 — position and weather

sailwx.info

Track history (hours):
 
Tides and Currents Weather Stations Pressure Air Temp Water Temp Dewpoint Dewpoint Depression Visibility Wind Speed Wind Dir Waves Ship Positions

Gulf

Last reported at 2017-Jan-07 07:21 UTC. Time now 2017-Jan-22 06:03 UTC.
Position N 35°58' W 005°34'.
Warning: this ship's position is 14 days out of date.

Length 96 m; draft 5 m.

Type: Cargo ship. MMSI: 304320000.

Date/timePositionNaut miles runAvg speedWind from/ knotsBaromVisibWave heightAir tempDewpointWater temp
2017-Jan-07 07:21N 35°58' W 005°34'6 8.0
2017-Jan-07 06:34N 35°60' W 005°27'7 7.4
2017-Jan-07 05:33N 36°02' W 005°18'219 9.1
2017-Jan-06 05:33N 37°16' W 001°01'9 9.2
2017-Jan-06 04:33N 37°22' W 000°52'10 9.6
2017-Jan-06 03:33N 37°28' W 000°43'9 9.4
2017-Jan-06 02:33N 37°34' W 000°34'10 9.8
2017-Jan-06 01:33N 37°42' W 000°28'9 9.2
2017-Jan-06 00:33N 37°50' W 000°21'10 9.2
2017-Jan-05 23:27N 37°58' W 000°14'136 9.5
2017-Jan-05 09:10N 39°58' E 001°10'6 9.9
2017-Jan-05 08:33N 40°03' E 001°14'9 9.3
2017-Jan-05 07:33N 40°11' E 001°20'13 9.0
2017-Jan-05 06:10N 40°23' E 001°26'5 8.7
2017-Jan-05 05:33N 40°26' E 001°32'9 8.9
2017-Jan-05 04:33N 40°31' E 001°41'8 8.5
2017-Jan-05 03:34N 40°36' E 001°50'8 8.2
2017-Jan-05 02:33N 40°41' E 001°59'9 9.4
2017-Jan-05 01:33N 40°47' E 002°09'9 9.4
2017-Jan-05 00:33N 40°53' E 002°18'9 9.1
2017-Jan-04 23:33N 40°58' E 002°28'9 9.2
2017-Jan-04 22:32N 41°04' E 002°38'10 9.0
2017-Jan-04 21:26N 41°09' E 002°49'8 9.4
2017-Jan-04 20:32N 41°15' E 002°57'12 9.1
2017-Jan-04 19:12N 41°24' E 003°08'7 9.2
2017-Jan-04 18:29N 41°29' E 003°14'96 8.5
2017-Jan-04 07:10N 42°52' E 004°20'5 8.8
2017-Jan-04 06:33N 42°54' E 004°27'8 7.5
2017-Jan-04 05:32N 42°55' E 004°37'8 8.1
2017-Jan-04 04:33N 42°56' E 004°48'9 8.6
2017-Jan-04 03:28N 42°55' E 005°01'8 9.2
2017-Jan-04 02:33N 42°56' E 005°12'82 9.1
2017-Jan-03 17:32N 43°14' E 007°02'9 9.4
2017-Jan-03 16:33N 43°20' E 007°11'9 9.3
2017-Jan-03 15:33N 43°26' E 007°21'9 9.0
2017-Jan-03 14:33N 43°31' E 007°31'9 9.0
2017-Jan-03 13:33N 43°36' E 007°41'39 9.6
2017-Jan-03 09:32N 44°01' E 008°22'9 9.6
2017-Jan-03 08:34N 44°07' E 008°32'10 9.5
2017-Jan-03 07:34N 44°13' E 008°42'9 9.0
2017-Jan-03 06:33N 44°18' E 008°53'6 6.3
2017-Jan-03 05:34N 44°24' E 008°56'1 0.9
2017-Jan-03 04:33N 44°24' E 008°54'0 0.0
2017-Jan-03 03:33N 44°24' E 008°54'0 0.0
2017-Jan-03 02:33N 44°24' E 008°54'0 0.0
2017-Jan-03 01:30N 44°24' E 008°54'0 0.0
2017-Jan-03 00:33N 44°24' E 008°54'0 0.0
2017-Jan-02 23:33N 44°24' E 008°54'0 0.0
2017-Jan-02 22:33N 44°24' E 008°54'0 0.0
2017-Jan-02 21:33N 44°24' E 008°54'0 0.0
2017-Jan-02 20:30N 44°24' E 008°54'0 0.0
2017-Jan-02 19:33N 44°24' E 008°54'0 0.0
2017-Jan-02 18:33N 44°24' E 008°54'0 0.0
2017-Jan-02 17:33N 44°24' E 008°54'0 0.0
2017-Jan-02 16:33N 44°24' E 008°54'0 0.0
2017-Jan-02 15:33N 44°24' E 008°54'0 0.0
2017-Jan-02 14:33N 44°24' E 008°54'0 0.0
2017-Jan-02 13:33N 44°24' E 008°54'0 0.0
2017-Jan-02 12:24N 44°24' E 008°54'0 0.0
2017-Jan-02 11:27N 44°24' E 008°54'0 0.0
2017-Jan-02 10:27N 44°24' E 008°54'0 0.0
2017-Jan-02 09:27N 44°24' E 008°54'0 0.0
2017-Jan-02 08:30N 44°24' E 008°54'0 0.0
2017-Jan-02 07:30N 44°24' E 008°54'0 0.0
2017-Jan-02 06:25N 44°24' E 008°54'0 0.0
2017-Jan-02 05:25N 44°24' E 008°54'0 0.0
2017-Jan-02 04:28N 44°24' E 008°54'0 0.0
2017-Jan-02 03:25N 44°24' E 008°54'0 0.0
2017-Jan-02 02:28N 44°24' E 008°54'0 0.0
2017-Jan-02 01:31N 44°24' E 008°54'0 0.0
2017-Jan-02 00:28N 44°24' E 008°54'0 0.0
2017-Jan-01 23:31N 44°24' E 008°54'0 0.0
2017-Jan-01 22:31N 44°24' E 008°54'0 0.0
2017-Jan-01 21:28N 44°24' E 008°54'0 0.0
2017-Jan-01 20:31N 44°24' E 008°54'0 0.0
2017-Jan-01 19:31N 44°24' E 008°54'0 0.0
2017-Jan-01 18:31N 44°24' E 008°54'0 0.0
2017-Jan-01 17:31N 44°24' E 008°54'0 0.0
2017-Jan-01 16:31N 44°24' E 008°54'0 0.0
2017-Jan-01 15:28N 44°24' E 008°54'0 0.0
2017-Jan-01 14:28N 44°24' E 008°54'0 0.0
2017-Jan-01 13:31N 44°24' E 008°54'0 0.0
2017-Jan-01 12:31N 44°24' E 008°54'0 0.0
2017-Jan-01 11:28N 44°24' E 008°54'0 0.0
2017-Jan-01 10:28N 44°24' E 008°54'0 0.0
2017-Jan-01 09:31N 44°24' E 008°54'0 0.0
2017-Jan-01 08:31N 44°24' E 008°54'0 0.0
2017-Jan-01 07:31N 44°24' E 008°54'0 0.0
2017-Jan-01 06:31N 44°24' E 008°54'0 0.0
2017-Jan-01 05:31N 44°24' E 008°54'0 0.0
2017-Jan-01 04:31N 44°24' E 008°54'0 0.0
2017-Jan-01 03:31N 44°24' E 008°54'0 0.0
2017-Jan-01 02:22N 44°24' E 008°54'0 0.0
2017-Jan-01 01:25N 44°24' E 008°54'0 0.0
2017-Jan-01 00:25N 44°24' E 008°54'0 0.0
2016-Dec-31 23:25N 44°24' E 008°54'0 0.0
2016-Dec-31 22:28N 44°24' E 008°54'0 0.0
2016-Dec-31 21:28N 44°24' E 008°54'0 0.0
2016-Dec-31 20:28N 44°24' E 008°54'0 0.0
2016-Dec-31 19:28N 44°24' E 008°54'0 0.0
2016-Dec-31 18:31N 44°24' E 008°54'0 0.0
2016-Dec-31 17:31N 44°24' E 008°54'0 0.0
2016-Dec-31 16:31N 44°24' E 008°54'0 0.0
2016-Dec-31 15:31N 44°24' E 008°54'0 0.0
2016-Dec-31 14:31N 44°24' E 008°54'0 0.0
2016-Dec-31 13:31N 44°24' E 008°54'0 0.0
2016-Dec-31 12:22N 44°24' E 008°54'0 0.0
2016-Dec-31 11:25N 44°24' E 008°54'0 0.0
2016-Dec-31 10:25N 44°24' E 008°54'0 0.0
2016-Dec-31 09:25N 44°24' E 008°54'0 0.0
2016-Dec-31 08:28N 44°24' E 008°54'0 0.0
2016-Dec-31 07:28N 44°24' E 008°54'0 0.0
2016-Dec-31 06:28N 44°24' E 008°54'0 0.0
2016-Dec-31 05:31N 44°24' E 008°54'0 0.0
2016-Dec-31 04:31N 44°24' E 008°54'0 0.0
2016-Dec-31 03:31N 44°24' E 008°54'0 0.0
2016-Dec-31 02:31N 44°24' E 008°54'0 0.0
2016-Dec-31 01:31N 44°24' E 008°54'0 0.0
2016-Dec-31 00:31N 44°24' E 008°54'0 0.0
2016-Dec-30 23:31N 44°24' E 008°54'0 0.0
2016-Dec-30 22:25N 44°24' E 008°54'0 0.0
2016-Dec-30 21:25N 44°24' E 008°54'0 0.0
2016-Dec-30 20:25N 44°24' E 008°54'0 0.0
2016-Dec-30 19:31N 44°24' E 008°54'0 0.0
2016-Dec-30 18:28N 44°24' E 008°54'0 0.0
2016-Dec-30 17:31N 44°24' E 008°54'0 0.0
2016-Dec-30 16:28N 44°24' E 008°54'0 0.0
2016-Dec-30 15:31N 44°24' E 008°54'0 0.0
2016-Dec-30 14:31N 44°24' E 008°54'0 0.0
2016-Dec-30 13:31N 44°24' E 008°54'0 0.0
2016-Dec-30 12:31N 44°24' E 008°54'0 0.0
2016-Dec-30 11:31N 44°24' E 008°54'0 0.0
2016-Dec-30 10:31N 44°24' E 008°54'0 0.0
2016-Dec-30 09:22N 44°24' E 008°54'0 0.0
2016-Dec-30 08:31N 44°24' E 008°54'0 0.0
2016-Dec-30 07:25N 44°24' E 008°54'0 0.0
2016-Dec-30 06:22N 44°24' E 008°54'0 0.0
2016-Dec-30 05:25N 44°24' E 008°54'0 0.0
2016-Dec-30 04:28N 44°24' E 008°54'0 0.0
2016-Dec-30 03:28N 44°24' E 008°54'0 0.0
2016-Dec-30 02:13N 44°24' E 008°54'0 0.0
2016-Dec-30 01:31N 44°24' E 008°54'0 0.0
2016-Dec-30 00:28N 44°24' E 008°54'0 0.0
2016-Dec-29 23:31N 44°24' E 008°54'0 0.0
2016-Dec-29 22:28N 44°24' E 008°54'0 0.0
2016-Dec-29 21:31N 44°24' E 008°54'0 0.0
2016-Dec-29 20:31N 44°24' E 008°54'0 0.0
2016-Dec-29 19:31N 44°24' E 008°54'0 0.0
2016-Dec-29 18:25N 44°24' E 008°54'0 0.0
2016-Dec-29 17:25N 44°24' E 008°54'0 0.0
2016-Dec-29 16:25N 44°24' E 008°54'0 0.0
2016-Dec-29 15:31N 44°24' E 008°54'0 0.0
2016-Dec-29 14:28N 44°24' E 008°54'0 0.0
2016-Dec-29 13:28N 44°24' E 008°54'0 0.0
2016-Dec-29 12:28N 44°24' E 008°54'0 0.0
2016-Dec-29 11:31N 44°24' E 008°54'0 0.0
2016-Dec-29 10:31N 44°24' E 008°54'0 0.0
2016-Dec-29 09:31N 44°24' E 008°54'0 0.0
2016-Dec-29 08:28N 44°24' E 008°54'0 0.0
2016-Dec-29 07:31N 44°24' E 008°54'0 0.0
2016-Dec-29 06:22N 44°24' E 008°54'0 0.0
2016-Dec-29 05:22N 44°24' E 008°54'0 0.0
2016-Dec-29 04:22N 44°24' E 008°54'0 0.0
2016-Dec-29 03:25N 44°24' E 008°54'0 0.0
2016-Dec-29 02:25N 44°24' E 008°54'0 0.0
2016-Dec-29 01:25N 44°24' E 008°54'0 0.0
2016-Dec-29 00:28N 44°24' E 008°54'0 0.0
2016-Dec-28 23:28N 44°24' E 008°54'0 0.0
2016-Dec-28 22:13N 44°24' E 008°54'0 0.0
2016-Dec-28 21:28N 44°24' E 008°54'0 0.0
2016-Dec-28 20:28N 44°24' E 008°54'1 0.6
2016-Dec-28 19:33N 44°24' E 008°54'0 0.3
2016-Dec-28 18:27N 44°24' E 008°53'0 0.0
2016-Dec-28 17:27N 44°24' E 008°53'0 0.0
2016-Dec-28 16:30N 44°24' E 008°53'0 0.0
2016-Dec-28 15:30N 44°24' E 008°53'0 0.0
2016-Dec-28 14:30N 44°24' E 008°53'0 0.0
2016-Dec-28 13:33N 44°24' E 008°53'0 0.0
2016-Dec-28 12:33N 44°24' E 008°53'0 0.0
2016-Dec-28 11:33N 44°24' E 008°53'0 0.0
2016-Dec-28 10:33N 44°24' E 008°53'0 0.0
2016-Dec-28 09:33N 44°24' E 008°53'0 0.0
2016-Dec-28 08:33N 44°24' E 008°53'0 0.0
2016-Dec-28 07:33N 44°24' E 008°53'  
Track history (hours):
 
Tides and Currents Weather Stations Pressure Air Temp Water Temp Dewpoint Dewpoint Depression Visibility Wind Speed Wind Dir Waves Ship Positions

Gulf

Last reported at 2017-Jan-07 07:21 UTC. Time now 2017-Jan-22 06:03 UTC.
Position N 35°58' W 005°34'.
Warning: this ship's position is 14 days out of date.

Length 96 m; draft 5 m.

Type: Cargo ship. MMSI: 304320000.

Date/timePositionNaut miles runAvg speedWind from/ knotsBaromVisibWave heightAir tempDewpointWater temp
2017-Jan-07 07:21N 35°58' W 005°34'6 8.0
2017-Jan-07 06:34N 35°60' W 005°27'7 7.4
2017-Jan-07 05:33N 36°02' W 005°18'219 9.1
2017-Jan-06 05:33N 37°16' W 001°01'9 9.2
2017-Jan-06 04:33N 37°22' W 000°52'10 9.6
2017-Jan-06 03:33N 37°28' W 000°43'9 9.4
2017-Jan-06 02:33N 37°34' W 000°34'10 9.8
2017-Jan-06 01:33N 37°42' W 000°28'9 9.2
2017-Jan-06 00:33N 37°50' W 000°21'10 9.2
2017-Jan-05 23:27N 37°58' W 000°14'136 9.5
2017-Jan-05 09:10N 39°58' E 001°10'6 9.9
2017-Jan-05 08:33N 40°03' E 001°14'9 9.3
2017-Jan-05 07:33N 40°11' E 001°20'13 9.0
2017-Jan-05 06:10N 40°23' E 001°26'5 8.7
2017-Jan-05 05:33N 40°26' E 001°32'9 8.9
2017-Jan-05 04:33N 40°31' E 001°41'8 8.5
2017-Jan-05 03:34N 40°36' E 001°50'8 8.2
2017-Jan-05 02:33N 40°41' E 001°59'9 9.4
2017-Jan-05 01:33N 40°47' E 002°09'9 9.4
2017-Jan-05 00:33N 40°53' E 002°18'9 9.1
2017-Jan-04 23:33N 40°58' E 002°28'9 9.2
2017-Jan-04 22:32N 41°04' E 002°38'10 9.0
2017-Jan-04 21:26N 41°09' E 002°49'8 9.4
2017-Jan-04 20:32N 41°15' E 002°57'12 9.1
2017-Jan-04 19:12N 41°24' E 003°08'7 9.2
2017-Jan-04 18:29N 41°29' E 003°14'96 8.5
2017-Jan-04 07:10N 42°52' E 004°20'5 8.8
2017-Jan-04 06:33N 42°54' E 004°27'8 7.5
2017-Jan-04 05:32N 42°55' E 004°37'8 8.1
2017-Jan-04 04:33N 42°56' E 004°48'9 8.6
2017-Jan-04 03:28N 42°55' E 005°01'8 9.2
2017-Jan-04 02:33N 42°56' E 005°12'82 9.1
2017-Jan-03 17:32N 43°14' E 007°02'9 9.4
2017-Jan-03 16:33N 43°20' E 007°11'9 9.3
2017-Jan-03 15:33N 43°26' E 007°21'9 9.0
2017-Jan-03 14:33N 43°31' E 007°31'9 9.0
2017-Jan-03 13:33N 43°36' E 007°41'39 9.6
2017-Jan-03 09:32N 44°01' E 008°22'9 9.6
2017-Jan-03 08:34N 44°07' E 008°32'10 9.5
2017-Jan-03 07:34N 44°13' E 008°42'9 9.0
2017-Jan-03 06:33N 44°18' E 008°53'6 6.3
2017-Jan-03 05:34N 44°24' E 008°56'1 0.9
2017-Jan-03 04:33N 44°24' E 008°54'0 0.0
2017-Jan-03 03:33N 44°24' E 008°54'0 0.0
2017-Jan-03 02:33N 44°24' E 008°54'0 0.0
2017-Jan-03 01:30N 44°24' E 008°54'0 0.0
2017-Jan-03 00:33N 44°24' E 008°54'0 0.0
2017-Jan-02 23:33N 44°24' E 008°54'0 0.0
2017-Jan-02 22:33N 44°24' E 008°54'0 0.0
2017-Jan-02 21:33N 44°24' E 008°54'0 0.0
2017-Jan-02 20:30N 44°24' E 008°54'0 0.0
2017-Jan-02 19:33N 44°24' E 008°54'0 0.0
2017-Jan-02 18:33N 44°24' E 008°54'0 0.0
2017-Jan-02 17:33N 44°24' E 008°54'0 0.0
2017-Jan-02 16:33N 44°24' E 008°54'0 0.0
2017-Jan-02 15:33N 44°24' E 008°54'0 0.0
2017-Jan-02 14:33N 44°24' E 008°54'0 0.0
2017-Jan-02 13:33N 44°24' E 008°54'0 0.0
2017-Jan-02 12:24N 44°24' E 008°54'0 0.0
2017-Jan-02 11:27N 44°24' E 008°54'0 0.0
2017-Jan-02 10:27N 44°24' E 008°54'0 0.0
2017-Jan-02 09:27N 44°24' E 008°54'0 0.0
2017-Jan-02 08:30N 44°24' E 008°54'0 0.0
2017-Jan-02 07:30N 44°24' E 008°54'0 0.0
2017-Jan-02 06:25N 44°24' E 008°54'0 0.0
2017-Jan-02 05:25N 44°24' E 008°54'0 0.0
2017-Jan-02 04:28N 44°24' E 008°54'0 0.0
2017-Jan-02 03:25N 44°24' E 008°54'0 0.0
2017-Jan-02 02:28N 44°24' E 008°54'0 0.0
2017-Jan-02 01:31N 44°24' E 008°54'0 0.0
2017-Jan-02 00:28N 44°24' E 008°54'0 0.0
2017-Jan-01 23:31N 44°24' E 008°54'0 0.0
2017-Jan-01 22:31N 44°24' E 008°54'0 0.0
2017-Jan-01 21:28N 44°24' E 008°54'0 0.0
2017-Jan-01 20:31N 44°24' E 008°54'0 0.0
2017-Jan-01 19:31N 44°24' E 008°54'0 0.0
2017-Jan-01 18:31N 44°24' E 008°54'0 0.0
2017-Jan-01 17:31N 44°24' E 008°54'0 0.0
2017-Jan-01 16:31N 44°24' E 008°54'0 0.0
2017-Jan-01 15:28N 44°24' E 008°54'0 0.0
2017-Jan-01 14:28N 44°24' E 008°54'0 0.0
2017-Jan-01 13:31N 44°24' E 008°54'0 0.0
2017-Jan-01 12:31N 44°24' E 008°54'0 0.0
2017-Jan-01 11:28N 44°24' E 008°54'0 0.0
2017-Jan-01 10:28N 44°24' E 008°54'0 0.0
2017-Jan-01 09:31N 44°24' E 008°54'0 0.0
2017-Jan-01 08:31N 44°24' E 008°54'0 0.0
2017-Jan-01 07:31N 44°24' E 008°54'0 0.0
2017-Jan-01 06:31N 44°24' E 008°54'0 0.0
2017-Jan-01 05:31N 44°24' E 008°54'0 0.0
2017-Jan-01 04:31N 44°24' E 008°54'0 0.0
2017-Jan-01 03:31N 44°24' E 008°54'0 0.0
2017-Jan-01 02:22N 44°24' E 008°54'0 0.0
2017-Jan-01 01:25N 44°24' E 008°54'0 0.0
2017-Jan-01 00:25N 44°24' E 008°54'0 0.0
2016-Dec-31 23:25N 44°24' E 008°54'0 0.0
2016-Dec-31 22:28N 44°24' E 008°54'0 0.0
2016-Dec-31 21:28N 44°24' E 008°54'0 0.0
2016-Dec-31 20:28N 44°24' E 008°54'0 0.0
2016-Dec-31 19:28N 44°24' E 008°54'0 0.0
2016-Dec-31 18:31N 44°24' E 008°54'0 0.0
2016-Dec-31 17:31N 44°24' E 008°54'0 0.0
2016-Dec-31 16:31N 44°24' E 008°54'0 0.0
2016-Dec-31 15:31N 44°24' E 008°54'0 0.0
2016-Dec-31 14:31N 44°24' E 008°54'0 0.0
2016-Dec-31 13:31N 44°24' E 008°54'0 0.0
2016-Dec-31 12:22N 44°24' E 008°54'0 0.0
2016-Dec-31 11:25N 44°24' E 008°54'0 0.0
2016-Dec-31 10:25N 44°24' E 008°54'0 0.0
2016-Dec-31 09:25N 44°24' E 008°54'0 0.0
2016-Dec-31 08:28N 44°24' E 008°54'0 0.0
2016-Dec-31 07:28N 44°24' E 008°54'0 0.0
2016-Dec-31 06:28N 44°24' E 008°54'0 0.0
2016-Dec-31 05:31N 44°24' E 008°54'0 0.0
2016-Dec-31 04:31N 44°24' E 008°54'0 0.0
2016-Dec-31 03:31N 44°24' E 008°54'0 0.0
2016-Dec-31 02:31N 44°24' E 008°54'0 0.0
2016-Dec-31 01:31N 44°24' E 008°54'0 0.0
2016-Dec-31 00:31N 44°24' E 008°54'0 0.0
2016-Dec-30 23:31N 44°24' E 008°54'0 0.0
2016-Dec-30 22:25N 44°24' E 008°54'0 0.0
2016-Dec-30 21:25N 44°24' E 008°54'0 0.0
2016-Dec-30 20:25N 44°24' E 008°54'0 0.0
2016-Dec-30 19:31N 44°24' E 008°54'0 0.0
2016-Dec-30 18:28N 44°24' E 008°54'0 0.0
2016-Dec-30 17:31N 44°24' E 008°54'0 0.0
2016-Dec-30 16:28N 44°24' E 008°54'0 0.0
2016-Dec-30 15:31N 44°24' E 008°54'0 0.0
2016-Dec-30 14:31N 44°24' E 008°54'0 0.0
2016-Dec-30 13:31N 44°24' E 008°54'0 0.0
2016-Dec-30 12:31N 44°24' E 008°54'0 0.0
2016-Dec-30 11:31N 44°24' E 008°54'0 0.0
2016-Dec-30 10:31N 44°24' E 008°54'0 0.0
2016-Dec-30 09:22N 44°24' E 008°54'0 0.0
2016-Dec-30 08:31N 44°24' E 008°54'0 0.0
2016-Dec-30 07:25N 44°24' E 008°54'0 0.0
2016-Dec-30 06:22N 44°24' E 008°54'0 0.0
2016-Dec-30 05:25N 44°24' E 008°54'0 0.0
2016-Dec-30 04:28N 44°24' E 008°54'0 0.0
2016-Dec-30 03:28N 44°24' E 008°54'0 0.0
2016-Dec-30 02:13N 44°24' E 008°54'0 0.0
2016-Dec-30 01:31N 44°24' E 008°54'0 0.0
2016-Dec-30 00:28N 44°24' E 008°54'0 0.0
2016-Dec-29 23:31N 44°24' E 008°54'0 0.0
2016-Dec-29 22:28N 44°24' E 008°54'0 0.0
2016-Dec-29 21:31N 44°24' E 008°54'0 0.0
2016-Dec-29 20:31N 44°24' E 008°54'0 0.0
2016-Dec-29 19:31N 44°24' E 008°54'0 0.0
2016-Dec-29 18:25N 44°24' E 008°54'0 0.0
2016-Dec-29 17:25N 44°24' E 008°54'0 0.0
2016-Dec-29 16:25N 44°24' E 008°54'0 0.0
2016-Dec-29 15:31N 44°24' E 008°54'0 0.0
2016-Dec-29 14:28N 44°24' E 008°54'0 0.0
2016-Dec-29 13:28N 44°24' E 008°54'0 0.0
2016-Dec-29 12:28N 44°24' E 008°54'0 0.0
2016-Dec-29 11:31N 44°24' E 008°54'0 0.0
2016-Dec-29 10:31N 44°24' E 008°54'0 0.0
2016-Dec-29 09:31N 44°24' E 008°54'0 0.0
2016-Dec-29 08:28N 44°24' E 008°54'0 0.0
2016-Dec-29 07:31N 44°24' E 008°54'0 0.0
2016-Dec-29 06:22N 44°24' E 008°54'0 0.0
2016-Dec-29 05:22N 44°24' E 008°54'0 0.0
2016-Dec-29 04:22N 44°24' E 008°54'0 0.0
2016-Dec-29 03:25N 44°24' E 008°54'0 0.0
2016-Dec-29 02:25N 44°24' E 008°54'0 0.0
2016-Dec-29 01:25N 44°24' E 008°54'0 0.0
2016-Dec-29 00:28N 44°24' E 008°54'0 0.0
2016-Dec-28 23:28N 44°24' E 008°54'0 0.0
2016-Dec-28 22:13N 44°24' E 008°54'0 0.0
2016-Dec-28 21:28N 44°24' E 008°54'0 0.0
2016-Dec-28 20:28N 44°24' E 008°54'1 0.6
2016-Dec-28 19:33N 44°24' E 008°54'0 0.3
2016-Dec-28 18:27N 44°24' E 008°53'0 0.0
2016-Dec-28 17:27N 44°24' E 008°53'0 0.0
2016-Dec-28 16:30N 44°24' E 008°53'0 0.0
2016-Dec-28 15:30N 44°24' E 008°53'0 0.0
2016-Dec-28 14:30N 44°24' E 008°53'0 0.0
2016-Dec-28 13:33N 44°24' E 008°53'0 0.0
2016-Dec-28 12:33N 44°24' E 008°53'0 0.0
2016-Dec-28 11:33N 44°24' E 008°53'0 0.0
2016-Dec-28 10:33N 44°24' E 008°53'0 0.0
2016-Dec-28 09:33N 44°24' E 008°53'0 0.0
2016-Dec-28 08:33N 44°24' E 008°53'0 0.0
2016-Dec-28 07:33N 44°24' E 008°53'  

Dump ship's entire track history